createdAt,value
2018-09-06T00:01:18.319Z,13.10
2018-09-06T00:03:46.004Z,13.20
2018-09-06T00:06:13.696Z,13.30
2018-09-06T00:08:41.335Z,13.30
2018-09-06T00:11:09.050Z,13.10
2018-09-06T00:13:36.724Z,13.10
2018-09-06T00:16:04.451Z,13.00
2018-09-06T00:18:32.466Z,12.90
2018-09-06T00:21:00.222Z,12.80
2018-09-06T00:23:27.899Z,12.80
2018-09-06T00:25:55.564Z,12.80
2018-09-06T00:28:23.221Z,12.80
2018-09-06T00:30:50.935Z,12.80
2018-09-06T00:33:19.241Z,12.70
2018-09-06T00:35:46.935Z,12.60
2018-09-06T00:38:14.597Z,12.60
2018-09-06T00:40:42.357Z,12.60
2018-09-06T00:43:09.985Z,12.70
2018-09-06T00:45:37.713Z,12.70
2018-09-06T00:48:05.439Z,12.70
2018-09-06T00:50:39.324Z,12.60
2018-09-06T00:53:07.098Z,12.60
2018-09-06T00:55:35.044Z,12.50
2018-09-06T00:58:02.816Z,12.50
2018-09-06T01:00:30.497Z,12.50
2018-09-06T01:02:58.165Z,12.40
2018-09-06T01:05:25.895Z,12.30
2018-09-06T01:07:53.551Z,12.30
2018-09-06T01:10:21.195Z,12.20
2018-09-06T01:12:48.969Z,12.20
2018-09-06T01:15:16.597Z,12.20
2018-09-06T01:17:44.360Z,12.20
2018-09-06T01:20:12.029Z,12.20
2018-09-06T01:22:39.739Z,12.10
2018-09-06T01:25:07.422Z,12.20
2018-09-06T01:27:35.099Z,12.20
2018-09-06T01:30:02.759Z,12.20
2018-09-06T01:34:57.954Z,12.10
2018-09-06T01:37:25.646Z,12.00
2018-09-06T01:42:20.881Z,11.90
2018-09-06T01:44:48.557Z,11.90
2018-09-06T01:49:43.791Z,11.80
2018-09-06T01:52:11.459Z,11.80
2018-09-06T01:54:39.124Z,11.80
2018-09-06T01:57:06.800Z,11.80
2018-09-06T01:59:35.460Z,11.90
2018-09-06T02:02:03.271Z,11.80
2018-09-06T02:04:30.935Z,11.80
2018-09-06T02:09:26.184Z,11.70
2018-09-06T02:11:53.875Z,11.70
2018-09-06T02:14:21.606Z,11.70
2018-09-06T02:16:49.356Z,11.70
2018-09-06T02:19:17.072Z,11.70
2018-09-06T02:21:44.693Z,11.70
2018-09-06T02:24:12.419Z,11.70
2018-09-06T02:26:40.082Z,11.60
2018-09-06T02:29:07.780Z,11.60
2018-09-06T02:34:03.205Z,11.60
2018-09-06T02:36:30.907Z,11.60
2018-09-06T02:38:58.576Z,11.50
2018-09-06T02:41:26.229Z,11.50
2018-09-06T02:43:53.887Z,11.50
2018-09-06T02:46:21.536Z,11.60
2018-09-06T02:51:17.900Z,11.60
2018-09-06T02:53:45.586Z,11.60
2018-09-06T02:56:14.004Z,11.60
2018-09-06T02:58:41.759Z,11.60
2018-09-06T03:01:09.740Z,11.50
2018-09-06T03:03:37.461Z,11.50
2018-09-06T03:06:05.433Z,11.40
2018-09-06T03:08:33.155Z,11.40
2018-09-06T03:11:04.606Z,11.40
2018-09-06T03:13:32.245Z,11.40
2018-09-06T03:18:27.591Z,11.30
2018-09-06T03:20:55.231Z,11.30
2018-09-06T03:23:22.927Z,11.30
2018-09-06T03:25:50.591Z,11.30
2018-09-06T03:28:18.335Z,11.30
2018-09-06T03:30:46.002Z,11.30
2018-09-06T03:33:13.672Z,11.20
2018-09-06T03:35:41.330Z,11.30
2018-09-06T03:40:36.535Z,11.30
2018-09-06T03:43:04.236Z,11.30
2018-09-06T03:45:31.887Z,11.30
2018-09-06T03:47:59.600Z,11.20
2018-09-06T03:50:27.251Z,11.20
2018-09-06T03:52:54.927Z,11.20
2018-09-06T03:55:22.656Z,11.20
2018-09-06T03:57:50.413Z,11.20
2018-09-06T04:00:18.141Z,11.20
2018-09-06T04:02:45.816Z,11.10
2018-09-06T04:05:13.526Z,11.20
2018-09-06T04:07:41.190Z,11.20
2018-09-06T04:10:08.866Z,11.20
2018-09-06T04:12:36.562Z,11.20
2018-09-06T04:15:04.371Z,11.20
2018-09-06T04:22:27.198Z,11.20
2018-09-06T04:24:54.872Z,11.30
2018-09-06T04:29:50.178Z,11.20
2018-09-06T04:32:17.852Z,11.20
2018-09-06T04:37:13.100Z,11.20
2018-09-06T04:39:40.752Z,11.20
2018-09-06T04:42:08.456Z,11.20
2018-09-06T04:47:03.695Z,11.30
2018-09-06T04:49:31.336Z,11.20
2018-09-06T04:51:59.004Z,11.20
2018-09-06T04:54:26.763Z,11.20
2018-09-06T04:56:54.467Z,11.20
2018-09-06T04:59:22.157Z,11.30
2018-09-06T05:01:50.729Z,11.20
2018-09-06T05:04:18.498Z,11.30
2018-09-06T05:09:13.652Z,11.20
2018-09-06T05:14:09.162Z,11.40
2018-09-06T05:16:37.199Z,11.30
2018-09-06T05:19:04.974Z,11.30
2018-09-06T05:21:32.628Z,11.30
2018-09-06T05:24:00.301Z,11.30
2018-09-06T05:28:55.431Z,11.50
2018-09-06T05:31:23.106Z,11.50
2018-09-06T05:33:50.793Z,11.50
2018-09-06T05:36:18.518Z,11.40
2018-09-06T05:41:13.698Z,11.50
2018-09-06T05:43:41.373Z,11.50
2018-09-06T05:48:37.586Z,11.60
2018-09-06T05:51:05.629Z,11.60
2018-09-06T05:53:33.369Z,11.60
2018-09-06T06:03:23.728Z,11.90
2018-09-06T06:05:51.469Z,12.00
2018-09-06T06:08:30.603Z,12.20
2018-09-06T06:10:58.343Z,12.20
2018-09-06T06:15:53.643Z,12.20
2018-09-06T06:18:21.349Z,12.30
2018-09-06T06:20:49.010Z,12.30
2018-09-06T06:23:16.724Z,12.40
2018-09-06T06:28:11.957Z,12.60
2018-09-06T06:30:39.620Z,12.70
2018-09-06T06:35:34.813Z,12.90
2018-09-06T06:38:02.498Z,13.00
2018-09-06T06:40:30.129Z,13.00
2018-09-06T06:42:57.847Z,13.10
2018-09-06T06:45:25.503Z,13.20
2018-09-06T06:47:53.169Z,13.30
2018-09-06T06:50:21.036Z,13.50
2018-09-06T06:52:48.676Z,13.50
2018-09-06T06:55:16.375Z,13.60
2018-09-06T06:57:44.294Z,13.80
2018-09-06T07:00:12.453Z,13.90
2018-09-06T07:02:40.104Z,14.10
2018-09-06T07:05:07.838Z,14.30
2018-09-06T07:07:35.487Z,14.50
2018-09-06T07:10:03.283Z,14.60
2018-09-06T07:12:30.947Z,14.80
2018-09-06T07:17:26.192Z,15.10
2018-09-06T07:19:54.211Z,15.20
2018-09-06T07:22:21.909Z,15.30
2018-09-06T07:24:49.669Z,15.40
2018-09-06T07:27:17.632Z,15.50
2018-09-06T07:29:45.372Z,15.60
2018-09-06T07:32:13.077Z,15.70
2018-09-06T07:34:40.739Z,16.00
2018-09-06T07:37:08.434Z,16.10
2018-09-06T07:39:36.085Z,16.20
2018-09-06T07:42:03.843Z,16.40
2018-09-06T07:44:31.513Z,16.60
2018-09-06T07:46:59.306Z,16.80
2018-09-06T07:49:26.961Z,17.00
2018-09-06T07:51:54.653Z,17.20
2018-09-06T07:54:22.331Z,17.30
2018-09-06T07:56:50.053Z,17.40
2018-09-06T07:59:17.782Z,17.60
2018-09-06T08:01:45.490Z,17.70
2018-09-06T08:04:13.193Z,17.90
2018-09-06T08:06:40.909Z,18.10
2018-09-06T08:09:10.138Z,18.30
2018-09-06T08:11:38.363Z,18.40
2018-09-06T08:14:06.078Z,18.50
2018-09-06T08:16:33.914Z,18.70
2018-09-06T08:19:01.638Z,18.90
2018-09-06T08:21:29.279Z,19.00
2018-09-06T08:23:57.025Z,19.30
2018-09-06T08:26:25.144Z,19.40
2018-09-06T08:28:52.913Z,19.70
2018-09-06T08:31:20.585Z,19.90
2018-09-06T08:33:48.358Z,20.20
2018-09-06T08:36:16.009Z,20.70
2018-09-06T08:38:43.708Z,21.20
2018-09-06T08:41:11.371Z,22.00
2018-09-06T08:43:39.118Z,22.20
2018-09-06T08:46:06.798Z,22.60
2018-09-06T08:48:34.502Z,22.90
2018-09-06T08:51:02.198Z,23.00
2018-09-06T08:53:29.924Z,23.30
2018-09-06T08:56:28.685Z,23.20
2018-09-06T08:58:56.394Z,23.30
2018-09-06T09:03:57.368Z,23.20
2018-09-06T09:06:26.134Z,23.10
2018-09-06T09:08:53.779Z,22.90
2018-09-06T09:13:49.120Z,23.00
2018-09-06T09:16:16.958Z,23.00
2018-09-06T09:18:44.543Z,22.90
2018-09-06T09:21:12.263Z,23.00
2018-09-06T09:23:40.044Z,22.90
2018-09-06T09:26:07.739Z,22.90
2018-09-06T09:31:02.979Z,23.20
2018-09-06T09:35:58.341Z,23.70
2018-09-06T09:38:25.996Z,23.80
2018-09-06T09:40:53.686Z,24.10
2018-09-06T09:43:21.491Z,24.50
2018-09-06T09:45:49.158Z,24.90
2018-09-06T09:48:16.859Z,25.10
2018-09-06T09:53:11.790Z,26.30
2018-09-06T09:55:39.555Z,26.60
2018-09-06T09:58:07.245Z,26.50
2018-09-06T10:00:36.640Z,26.50
2018-09-06T10:03:09.884Z,26.80
2018-09-06T10:05:43.110Z,27.40
2018-09-06T10:08:16.319Z,27.80
2018-09-06T10:10:44.016Z,27.70
2018-09-06T10:15:40.252Z,27.30
2018-09-06T10:18:08.458Z,26.90
2018-09-06T10:20:36.144Z,26.30
2018-09-06T10:23:03.831Z,26.00
2018-09-06T10:25:31.505Z,25.90
2018-09-06T10:27:59.316Z,25.80
2018-09-06T10:30:27.078Z,25.70
2018-09-06T10:32:54.909Z,25.20
2018-09-06T10:35:22.727Z,25.00
2018-09-06T10:37:50.458Z,24.90
2018-09-06T10:40:18.259Z,24.30
2018-09-06T10:42:47.238Z,24.00
2018-09-06T10:45:14.948Z,23.50
2018-09-06T10:47:42.739Z,23.30
2018-09-06T10:55:05.556Z,23.00
2018-09-06T10:57:33.265Z,22.90
2018-09-06T11:00:00.950Z,22.90
2018-09-06T11:02:28.839Z,22.80
2018-09-06T11:04:56.609Z,22.60
2018-09-06T11:07:24.375Z,22.40
2018-09-06T11:09:52.045Z,22.30
2018-09-06T11:12:19.771Z,22.10
2018-09-06T11:17:15.100Z,21.90
2018-09-06T11:19:42.821Z,21.90
2018-09-06T11:22:10.765Z,21.90
2018-09-06T11:24:38.226Z,22.00
2018-09-06T11:27:05.920Z,22.00
2018-09-06T11:29:33.592Z,22.10
2018-09-06T11:32:01.246Z,22.10
2018-09-06T11:34:28.950Z,22.10
2018-09-06T11:36:56.664Z,22.10
2018-09-06T11:39:24.396Z,22.00
2018-09-06T11:41:52.161Z,22.10
2018-09-06T11:44:20.005Z,22.10
2018-09-06T11:46:47.807Z,22.40
2018-09-06T11:49:15.496Z,22.40
2018-09-06T11:51:43.259Z,22.40
2018-09-06T11:54:11.249Z,22.20
2018-09-06T11:56:38.930Z,22.30
2018-09-06T11:59:06.661Z,22.20
2018-09-06T12:01:34.375Z,22.20
2018-09-06T12:04:02.280Z,22.10
2018-09-06T12:06:29.978Z,22.10
2018-09-06T12:08:57.735Z,22.50
2018-09-06T12:11:25.445Z,22.90
2018-09-06T12:13:53.154Z,23.50
2018-09-06T12:16:20.870Z,24.10
2018-09-06T12:18:48.540Z,25.10
2018-09-06T12:21:16.350Z,26.00
2018-09-06T12:23:44.076Z,26.60
2018-09-06T12:28:39.418Z,26.50
2018-09-06T12:31:07.135Z,27.00
2018-09-06T12:33:35.028Z,27.10
2018-09-06T12:36:02.791Z,27.00
2018-09-06T12:38:30.882Z,27.10
2018-09-06T12:40:58.605Z,27.20
2018-09-06T12:43:26.409Z,26.90
2018-09-06T12:48:21.691Z,27.10
2018-09-06T12:50:49.651Z,27.00
2018-09-06T12:53:17.380Z,27.20
2018-09-06T12:55:45.097Z,26.80
2018-09-06T12:58:12.785Z,26.60
2018-09-06T13:00:40.466Z,26.10
2018-09-06T13:03:08.111Z,25.50
2018-09-06T13:05:35.867Z,24.90
2018-09-06T13:10:31.165Z,24.30
2018-09-06T13:12:58.867Z,24.00
2018-09-06T13:15:26.569Z,23.80
2018-09-06T13:17:54.251Z,23.50
2018-09-06T13:20:21.931Z,23.20
2018-09-06T13:22:49.570Z,22.90
2018-09-06T13:25:17.335Z,22.60
2018-09-06T13:27:44.997Z,22.30
2018-09-06T13:30:12.724Z,22.20
2018-09-06T13:32:40.359Z,22.00
2018-09-06T13:35:08.089Z,21.90
2018-09-06T13:37:35.779Z,21.90
2018-09-06T13:40:03.656Z,21.90
2018-09-06T13:42:31.341Z,21.70
2018-09-06T13:44:59.036Z,21.50
2018-09-06T13:47:26.685Z,21.30
2018-09-06T13:49:54.356Z,21.20
2018-09-06T13:54:49.577Z,21.30
2018-09-06T13:57:17.311Z,21.50
2018-09-06T13:59:44.984Z,22.10
2018-09-06T14:02:12.714Z,23.50
2018-09-06T14:07:08.012Z,26.50
2018-09-06T14:09:35.795Z,26.40
2018-09-06T14:12:04.216Z,26.10
2018-09-06T14:14:31.885Z,26.00
2018-09-06T14:16:59.510Z,26.00
2018-09-06T14:19:27.266Z,25.70
2018-09-06T14:21:55.043Z,25.60
2018-09-06T14:24:32.114Z,25.40
2018-09-06T14:26:59.845Z,25.20
2018-09-06T14:29:28.370Z,25.00
2018-09-06T14:31:56.037Z,24.70
2018-09-06T14:34:23.691Z,24.30
2018-09-06T14:36:51.376Z,24.30
2018-09-06T14:39:19.025Z,24.00
2018-09-06T14:41:46.716Z,24.10
2018-09-06T14:44:14.438Z,24.40
2018-09-06T14:46:42.101Z,25.30
2018-09-06T14:51:37.307Z,26.20
2018-09-06T14:54:05.403Z,25.80
2018-09-06T14:56:33.075Z,25.40
2018-09-06T14:59:00.736Z,25.30
2018-09-06T15:01:28.438Z,25.30
2018-09-06T15:03:56.162Z,25.20
2018-09-06T15:06:23.845Z,25.10
2018-09-06T15:08:51.507Z,24.80
2018-09-06T15:11:19.162Z,24.40
2018-09-06T15:13:46.870Z,23.90
2018-09-06T15:16:14.555Z,23.70
2018-09-06T15:23:37.372Z,22.50
2018-09-06T15:26:05.081Z,22.20
2018-09-06T15:28:32.765Z,21.90
2018-09-06T15:31:00.493Z,21.70
2018-09-06T15:33:28.187Z,21.50
2018-09-06T15:35:55.955Z,21.30
2018-09-06T15:38:23.718Z,21.20
2018-09-06T15:43:18.944Z,21.30
2018-09-06T15:45:46.625Z,21.30
2018-09-06T15:48:14.308Z,21.20
2018-09-06T15:50:42.006Z,21.10
2018-09-06T15:53:09.896Z,21.00
2018-09-06T15:55:37.537Z,21.00
2018-09-06T15:58:05.371Z,21.00
2018-09-06T16:00:33.046Z,21.10
2018-09-06T16:03:00.696Z,21.20
2018-09-06T16:05:28.434Z,21.20
2018-09-06T16:07:56.098Z,21.30
2018-09-06T16:10:23.814Z,21.30
2018-09-06T16:12:51.499Z,21.40
2018-09-06T16:15:19.543Z,21.40
2018-09-06T16:17:47.196Z,21.40
2018-09-06T16:20:14.933Z,21.40
2018-09-06T16:22:43.528Z,21.20
2018-09-06T16:27:39.758Z,21.10
2018-09-06T16:30:07.540Z,21.00
2018-09-06T16:35:02.796Z,20.60
2018-09-06T16:37:30.491Z,20.50
2018-09-06T16:39:58.185Z,20.40
2018-09-06T16:42:25.915Z,20.40
2018-09-06T16:44:53.579Z,20.30
2018-09-06T16:47:21.246Z,20.30
2018-09-06T16:52:16.516Z,20.10
2018-09-06T16:54:44.188Z,20.00
2018-09-06T16:57:11.933Z,20.00
2018-09-06T16:59:39.632Z,19.90
2018-09-06T17:02:07.325Z,19.70
2018-09-06T17:04:35.088Z,19.50
2018-09-06T17:07:03.008Z,19.30
2018-09-06T17:09:30.717Z,19.20
2018-09-06T17:11:58.417Z,19.00
2018-09-06T17:14:26.226Z,18.90
2018-09-06T17:16:53.865Z,18.80
2018-09-06T17:19:21.572Z,18.70
2018-09-06T17:21:49.281Z,18.50
2018-09-06T17:24:17.003Z,18.50
2018-09-06T17:26:44.733Z,18.50
2018-09-06T17:29:12.438Z,18.50
2018-09-06T17:31:40.111Z,18.40
2018-09-06T17:34:07.894Z,18.10
2018-09-06T17:36:35.587Z,17.90
2018-09-06T17:39:05.407Z,17.70
2018-09-06T17:41:32.986Z,17.50
2018-09-06T17:44:00.622Z,17.40
2018-09-06T17:46:28.336Z,17.20
2018-09-06T17:56:18.776Z,16.90
2018-09-06T17:58:46.463Z,16.80
2018-09-06T18:01:31.222Z,16.70
2018-09-06T18:03:59.117Z,16.70
2018-09-06T18:06:26.843Z,16.60
2018-09-06T18:08:54.621Z,16.50
2018-09-06T18:11:22.307Z,16.50
2018-09-06T18:13:50.001Z,16.50
2018-09-06T18:16:17.747Z,16.50
2018-09-06T18:18:45.497Z,16.40
2018-09-06T18:21:13.239Z,16.40
2018-09-06T18:23:40.994Z,16.30
2018-09-06T18:26:08.656Z,16.20
2018-09-06T18:28:36.363Z,16.20
2018-09-06T18:31:04.123Z,16.20
2018-09-06T18:36:15.621Z,16.30
2018-09-06T18:38:43.864Z,16.10
2018-09-06T18:41:11.568Z,15.90
2018-09-06T18:43:39.352Z,15.80
2018-09-06T18:46:07.118Z,15.70
2018-09-06T18:51:02.417Z,15.60
2018-09-06T18:53:30.084Z,15.60
2018-09-06T18:55:57.839Z,15.60
2018-09-06T18:58:25.628Z,15.50
2018-09-06T19:00:53.327Z,15.50
2018-09-06T19:03:21.052Z,15.60
2018-09-06T19:05:48.832Z,15.60
2018-09-06T19:08:16.643Z,15.60
2018-09-06T19:10:44.420Z,15.60
2018-09-06T19:15:39.761Z,15.50
2018-09-06T19:18:07.647Z,15.50
2018-09-06T19:20:47.901Z,15.60
2018-09-06T19:23:16.255Z,15.60
2018-09-06T19:25:43.992Z,15.60
2018-09-06T19:28:11.837Z,15.50
2018-09-06T19:30:40.605Z,15.50
2018-09-06T19:38:05.063Z,15.50
2018-09-06T19:45:29.646Z,15.60
2018-09-06T19:47:58.057Z,15.60
2018-09-06T19:50:29.996Z,15.60
2018-09-06T19:52:58.115Z,15.50
2018-09-06T19:55:26.463Z,15.50
2018-09-06T19:57:54.684Z,15.50
2018-09-06T20:00:23.355Z,15.50
2018-09-06T20:02:51.146Z,15.40
2018-09-06T20:07:47.940Z,15.30
2018-09-06T20:12:45.272Z,15.40
2018-09-06T20:15:12.964Z,15.40
2018-09-06T20:17:41.273Z,15.40
2018-09-06T20:22:37.962Z,15.30
2018-09-06T20:25:05.699Z,15.30
2018-09-06T20:27:33.448Z,15.30
2018-09-06T20:30:01.234Z,15.40
2018-09-06T20:32:29.358Z,15.40
2018-09-06T20:34:58.049Z,15.40
2018-09-06T20:37:26.229Z,15.30
2018-09-06T20:39:53.978Z,15.30
2018-09-06T20:42:21.708Z,15.30
2018-09-06T20:44:49.847Z,15.30
2018-09-06T20:47:17.615Z,15.30
2018-09-06T20:52:15.223Z,15.20
2018-09-06T20:54:42.937Z,15.20
2018-09-06T20:59:39.223Z,15.20
2018-09-06T21:02:12.449Z,15.20
2018-09-06T21:04:41.092Z,15.20
2018-09-06T21:07:09.072Z,15.20
2018-09-06T21:09:36.769Z,15.20
2018-09-06T21:12:04.858Z,15.10
2018-09-06T21:14:33.221Z,15.10
2018-09-06T21:17:01.603Z,15.20
2018-09-06T21:19:30.116Z,15.20
2018-09-06T21:21:58.312Z,15.20
2018-09-06T21:24:27.122Z,15.20
2018-09-06T21:26:54.826Z,15.20
2018-09-06T21:29:22.543Z,15.20
2018-09-06T21:31:50.816Z,15.10
2018-09-06T21:34:18.570Z,15.10
2018-09-06T21:36:47.254Z,15.10
2018-09-06T21:44:11.241Z,15.10
2018-09-06T21:46:40.020Z,15.00
2018-09-06T21:49:08.018Z,15.00
2018-09-06T21:51:35.888Z,15.00
2018-09-06T21:54:03.633Z,15.00
2018-09-06T21:56:31.307Z,15.00
2018-09-06T22:01:26.597Z,15.00
2018-09-06T22:04:00.757Z,15.00
2018-09-06T22:06:28.537Z,15.00
2018-09-06T22:08:56.257Z,15.10
2018-09-06T22:11:23.957Z,15.00
2018-09-06T22:13:51.717Z,15.00
2018-09-06T22:16:19.412Z,15.00
2018-09-06T22:18:47.132Z,15.00
2018-09-06T22:28:37.757Z,15.00
2018-09-06T22:31:05.675Z,15.00
2018-09-06T22:33:33.323Z,15.00
2018-09-06T22:38:28.598Z,15.00
2018-09-06T22:40:56.282Z,15.00
2018-09-06T22:45:51.507Z,14.90
2018-09-06T22:48:19.234Z,14.90
2018-09-06T22:50:46.903Z,15.00
2018-09-06T22:53:14.535Z,15.10
2018-09-06T22:55:42.247Z,15.00
2018-09-06T22:58:09.890Z,15.00
2018-09-06T23:00:37.618Z,15.00
2018-09-06T23:03:13.493Z,15.00
2018-09-06T23:05:41.262Z,15.00
2018-09-06T23:08:08.948Z,15.00
2018-09-06T23:13:04.243Z,15.00
2018-09-06T23:15:31.942Z,15.00
2018-09-06T23:17:59.684Z,15.00
2018-09-06T23:20:27.348Z,15.10
2018-09-06T23:22:55.053Z,15.10
2018-09-06T23:25:22.708Z,15.00
2018-09-06T23:27:50.400Z,15.00
2018-09-06T23:30:18.059Z,15.00
2018-09-06T23:32:45.752Z,15.00
2018-09-06T23:35:13.370Z,15.00
2018-09-06T23:37:41.068Z,15.00
2018-09-06T23:40:08.737Z,15.00
2018-09-06T23:42:36.413Z,14.90
2018-09-06T23:45:04.131Z,14.90
2018-09-06T23:47:31.863Z,14.90
2018-09-06T23:49:59.496Z,14.90
2018-09-06T23:52:27.113Z,14.90
2018-09-06T23:54:54.789Z,14.80
2018-09-06T23:57:22.443Z,14.90
2018-09-06T23:59:50.178Z,14.90
